Time;durP1;ratioP1;P1;durP2;ratioP2;P2;SDS_P1;SDS_P2;PMS_P1;PMS_P2;Temp;Humidity;BMP_temperature;BMP_pressure;BME280_temperature;BME280_humidity;BME280_pressure;Samples;Min_cycle;Max_cycle;Signal;HPM_P1;HPM_P2
2023/12/14 00:00:23;;;;;;;2.17;2.05;;;;;;;7.24;100.00;97541.53;4103814;28;20211;-44
2023/12/14 00:02:25;;;;;;;3.45;3.22;;;;;;;7.22;100.00;97539.03;4104150;28;20355;-44
2023/12/14 00:04:26;;;;;;;3.30;3.00;;;;;;;7.29;100.00;97549.75;4102044;28;20211;-44
2023/12/14 00:06:28;;;;;;;3.40;3.20;;;;;;;7.22;100.00;97565.44;4106849;28;20239;-44
2023/12/14 00:08:30;;;;;;;2.67;2.53;;;;;;;7.23;100.00;97567.09;4104281;28;20211;-44
2023/12/14 00:10:32;;;;;;;3.25;3.05;;;;;;;7.21;100.00;97563.81;4104477;28;20215;-44
2023/12/14 00:12:34;;;;;;;3.78;3.47;;;;;;;7.28;100.00;97567.16;4102619;28;20209;-45
2023/12/14 00:14:36;;;;;;;2.70;2.50;;;;;;;7.25;100.00;97575.81;4104952;28;20287;-44
2023/12/14 00:16:38;;;;;;;3.15;2.92;;;;;;;7.19;100.00;97576.81;4082475;29;20259;-44
2023/12/14 00:18:39;;;;;;;2.75;2.55;;;;;;;7.23;100.00;97577.97;4093581;28;20207;-45
2023/12/14 00:20:44;;;;;;;3.72;3.42;;;;;;;7.25;100.00;97575.81;4107491;28;20237;-44
2023/12/14 00:22:46;;;;;;;3.03;2.72;;;;;;;7.23;100.00;97577.97;4107749;28;20214;-43
2023/12/14 00:24:48;;;;;;;3.42;2.95;;;;;;;7.23;100.00;97577.97;4088110;28;20204;-44
2023/12/14 00:26:49;;;;;;;3.15;2.85;;;;;;;7.24;100.00;97587.78;4109042;28;20895;-44
2023/12/14 00:28:51;;;;;;;3.20;2.90;;;;;;;7.24;100.00;97588.59;4085584;29;20270;-44
2023/12/14 00:31:02;;;;;;;3.60;3.40;;;;;;;7.23;100.00;97586.13;4099009;28;20634;-44
2023/12/14 00:33:04;;;;;;;3.55;3.25;;;;;;;7.21;100.00;97593.72;4107879;28;20294;-44
2023/12/14 00:35:06;;;;;;;4.45;3.45;;;;;;;7.21;100.00;97593.72;4107049;28;20218;-44
2023/12/14 00:37:08;;;;;;;2.88;2.67;;;;;;;7.29;100.00;97593.28;4106264;28;20231;-44
2023/12/14 00:39:10;;;;;;;2.70;2.50;;;;;;;7.26;100.00;97589.16;4107337;28;20948;-44
2023/12/14 00:41:12;;;;;;;3.65;2.53;;;;;;;7.19;100.00;97602.13;4091499;28;20270;-44
2023/12/14 00:43:14;;;;;;;3.85;3.47;;;;;;;7.30;100.00;97603.09;4089334;28;20658;-44
2023/12/14 00:45:15;;;;;;;3.85;3.55;;;;;;;7.17;100.00;97606.16;4107469;28;20741;-44
2023/12/14 00:47:17;;;;;;;3.17;2.97;;;;;;;7.06;100.00;97612.53;4091846;28;20757;-44
2023/12/14 00:49:19;;;;;;;2.67;2.50;;;;;;;7.15;100.00;97616.50;4090432;28;20353;-44
2023/12/14 00:51:21;;;;;;;3.47;3.17;;;;;;;7.07;100.00;97619.63;4091201;28;20223;-44
2023/12/14 00:53:22;;;;;;;4.80;2.95;;;;;;;7.10;100.00;97619.13;4106589;28;20207;-44
2023/12/14 00:55:24;;;;;;;6.28;3.10;;;;;;;7.07;100.00;97627.78;4107105;28;20211;-44
2023/12/14 00:57:26;;;;;;;2.65;2.45;;;;;;;7.12;100.00;97636.00;4090426;28;20235;-45
2023/12/14 00:59:29;;;;;;;3.72;3.53;;;;;;;7.07;100.00;97635.94;4106307;28;20203;-44
2023/12/14 01:01:31;;;;;;;3.65;2.08;;;;;;;7.07;100.00;97641.38;4104225;28;20582;-44
2023/12/14 01:03:33;;;;;;;2.63;2.42;;;;;;;7.08;100.00;97651.19;4091343;28;20251;-44
2023/12/14 01:05:35;;;;;;;2.60;2.42;;;;;;;7.09;100.00;97648.22;4106982;28;20203;-44
2023/12/14 01:07:37;;;;;;;3.60;2.58;;;;;;;7.17;100.00;97649.69;4107654;28;20223;-44
2023/12/14 01:09:38;;;;;;;2.38;2.17;;;;;;;7.12;100.00;97663.22;4106420;28;20202;-44
2023/12/14 01:11:40;;;;;;;2.67;2.47;;;;;;;7.13;100.00;97662.13;4090303;28;20227;-44
2023/12/14 01:13:42;;;;;;;2.42;2.33;;;;;;;7.14;100.00;97666.50;4106388;28;20752;-44
2023/12/14 01:15:43;;;;;;;2.92;2.72;;;;;;;7.17;100.00;97666.03;4091873;28;20208;-44
2023/12/14 01:17:45;;;;;;;3.03;2.67;;;;;;;7.14;100.00;97671.94;4106229;28;20231;-44
2023/12/14 01:19:48;;;;;;;2.63;2.17;;;;;;;7.12;100.00;97674.94;4106023;28;20208;-44
2023/12/14 01:21:49;;;;;;;3.55;2.83;;;;;;;7.15;100.00;97677.13;4104948;28;20214;-43
2023/12/14 01:23:52;;;;;;;2.20;1.85;;;;;;;7.16;100.00;97675.25;4088180;28;20215;-44
2023/12/14 01:25:53;;;;;;;3.90;2.65;;;;;;;7.19;100.00;97681.03;4091336;28;20737;-44
2023/12/14 01:27:55;;;;;;;3.10;1.60;;;;;;;7.17;100.00;97685.06;4104672;28;20265;-44
2023/12/14 01:29:57;;;;;;;2.45;2.35;;;;;;;7.20;100.00;97685.38;4107642;28;20208;-44
2023/12/14 01:31:59;;;;;;;3.53;2.42;;;;;;;7.20;100.00;97687.28;4104208;28;20231;-44
2023/12/14 01:34:00;;;;;;;2.28;2.17;;;;;;;7.20;100.00;97687.28;4106757;28;20234;-44
2023/12/14 01:36:02;;;;;;;2.20;1.85;;;;;;;7.22;100.00;97690.59;4105209;28;20217;-44
2023/12/14 01:38:04;;;;;;;2.80;1.90;;;;;;;7.21;100.00;97684.31;4092981;28;20302;-44
2023/12/14 01:40:06;;;;;;;3.83;3.53;;;;;;;7.18;100.00;97690.25;4106767;28;20241;-44
2023/12/14 01:42:08;;;;;;;3.17;2.85;;;;;;;7.23;100.00;97686.78;4106112;28;20711;-44
2023/12/14 01:44:10;;;;;;;2.58;2.47;;;;;;;7.20;100.00;97693.53;4105835;28;20258;-44
2023/12/14 01:46:13;;;;;;;2.33;2.22;;;;;;;7.27;100.00;97696.09;4104319;28;20211;-44
2023/12/14 01:48:14;;;;;;;4.03;3.05;;;;;;;7.23;100.00;97697.66;4090042;28;20208;-45
2023/12/14 01:50:17;;;;;;;3.38;2.47;;;;;;;7.21;100.00;97710.72;4085217;28;20682;-44
2023/12/14 01:52:19;;;;;;;3.75;3.42;;;;;;;7.22;100.00;97705.00;4104138;28;20246;-44
2023/12/14 01:54:21;;;;;;;3.35;2.95;;;;;;;7.23;100.00;97711.28;4104949;28;20682;-44
2023/12/14 01:56:22;;;;;;;2.97;2.78;;;;;;;7.24;100.00;97712.91;4090633;28;20702;-44
2023/12/14 01:58:26;;;;;;;5.10;3.40;;;;;;;7.27;100.00;97726.84;4103105;28;20309;-44
2023/12/14 02:00:42;;;;;;;4.07;3.78;;;;;;;7.26;100.00;97735.25;4103428;28;20269;-44
2023/12/14 02:02:43;;;;;;;5.20;2.67;;;;;;;7.23;100.00;97735.75;4102195;28;20669;-44
2023/12/14 02:04:45;;;;;;;3.20;3.00;;;;;;;7.22;100.00;97740.38;4089358;28;20604;-44
2023/12/14 02:06:47;;;;;;;3.10;2.53;;;;;;;7.19;100.00;97746.31;4103686;28;20881;-44
2023/12/14 02:08:49;;;;;;;2.75;2.55;;;;;;;7.20;100.00;97752.56;4105425;28;20270;-45
2023/12/14 02:10:50;;;;;;;5.22;2.88;;;;;;;7.20;100.00;97750.69;4104483;28;20647;-44
2023/12/14 02:12:52;;;;;;;2.97;2.78;;;;;;;7.19;100.00;97762.63;4092618;28;20211;-43
2023/12/14 02:14:56;;;;;;;2.72;2.25;;;;;;;7.19;100.00;97753.63;4069138;29;20208;-45
2023/12/14 02:16:58;;;;;;;3.33;3.03;;;;;;;7.18;100.00;97760.16;4105095;28;20231;-44
2023/12/14 02:19:00;;;;;;;3.75;3.45;;;;;;;7.17;100.00;97763.94;4106305;28;20757;-44
2023/12/14 02:21:02;;;;;;;3.50;3.20;;;;;;;7.17;100.00;97763.94;4091438;28;21041;-44
2023/12/14 02:23:03;;;;;;;3.25;3.05;;;;;;;7.17;100.00;97763.94;4093072;28;20550;-44
2023/12/14 02:25:06;;;;;;;5.60;2.83;;;;;;;7.15;100.00;97761.47;4103542;28;20305;-44
2023/12/14 02:27:07;;;;;;;3.72;3.30;;;;;;;7.16;100.00;97767.75;4091164;28;20235;-44
2023/12/14 02:29:09;;;;;;;4.53;3.55;;;;;;;7.14;100.00;97765.25;4103707;28;20223;-44
2023/12/14 02:31:11;;;;;;;4.18;3.88;;;;;;;7.13;100.00;97770.94;4104776;28;20226;-44
2023/12/14 02:33:13;;;;;;;3.67;3.38;;;;;;;7.19;100.00;97775.41;4103635;28;20636;-44
2023/12/14 02:35:14;;;;;;;7.13;2.70;;;;;;;7.15;100.00;97776.97;4103290;28;20210;-44
2023/12/14 02:37:16;;;;;;;8.23;2.78;;;;;;;7.11;100.00;97768.50;4093721;28;20297;-44
2023/12/14 02:39:18;;;;;;;3.58;3.35;;;;;;;7.11;100.00;97773.09;4103252;28;20313;-45
2023/12/14 02:41:20;;;;;;;2.85;2.65;;;;;;;7.14;100.00;97770.72;4105943;28;20271;-44
2023/12/14 02:43:23;;;;;;;2.53;2.33;;;;;;;7.13;100.00;97773.66;4107016;28;20482;-44
2023/12/14 02:45:25;;;;;;;3.15;2.88;;;;;;;7.13;100.00;97773.66;4089683;28;20219;-44
2023/12/14 02:47:26;;;;;;;3.38;3.17;;;;;;;7.14;100.00;97776.16;4086578;28;20232;-44
2023/12/14 02:49:28;;;;;;;2.53;2.35;;;;;;;7.15;100.00;97787.88;4103609;28;20200;-44
2023/12/14 02:51:30;;;;;;;3.13;2.92;;;;;;;7.15;100.00;97782.44;4106597;28;20214;-44
2023/12/14 02:53:32;;;;;;;5.00;3.65;;;;;;;7.14;100.00;97791.63;4103459;28;20222;-44
2023/12/14 02:55:33;;;;;;;3.47;3.17;;;;;;;7.23;100.00;97796.41;4107025;28;20215;-44
2023/12/14 02:57:35;;;;;;;3.85;3.55;;;;;;;7.17;100.00;97802.03;4102671;28;20322;-44
2023/12/14 02:59:37;;;;;;;2.90;2.70;;;;;;;7.15;100.00;97807.72;4088350;28;20638;-45
2023/12/14 03:01:39;;;;;;;2.88;2.67;;;;;;;7.14;100.00;97814.22;4089129;28;20215;-44
2023/12/14 03:03:40;;;;;;;3.80;3.28;;;;;;;7.15;100.00;97809.63;4086720;28;20822;-45
2023/12/14 03:05:42;;;;;;;3.10;2.80;;;;;;;7.13;100.00;97818.03;4088038;28;20215;-44
2023/12/14 03:07:44;;;;;;;3.22;3.03;;;;;;;7.18;100.00;97820.00;4080377;29;20335;-44
2023/12/14 03:09:46;;;;;;;3.55;3.00;;;;;;;7.24;100.00;97822.59;4092095;28;20214;-44
2023/12/14 03:11:48;;;;;;;3.13;2.92;;;;;;;7.17;100.00;97831.97;4105770;28;20230;-44
2023/12/14 03:13:50;;;;;;;3.38;3.08;;;;;;;7.24;100.00;97827.19;4102211;28;20211;-44
2023/12/14 03:15:51;;;;;;;4.70;3.20;;;;;;;7.15;100.00;97831.41;4087746;28;20581;-44
2023/12/14 03:17:53;;;;;;;4.00;3.55;;;;;;;7.13;100.00;97828.06;4102391;28;20253;-44
2023/12/14 03:19:55;;;;;;;4.05;3.55;;;;;;;7.13;100.00;97834.34;4103233;28;20298;-45
2023/12/14 03:21:57;;;;;;;2.85;2.65;;;;;;;7.22;100.00;97834.78;4083965;28;20208;-44
2023/12/14 03:23:58;;;;;;;3.70;3.28;;;;;;;7.26;100.00;97844.09;4103925;28;20747;-44
2023/12/14 03:26:01;;;;;;;6.88;1.98;;;;;;;7.16;100.00;97847.44;4087863;28;20230;-45
2023/12/14 03:28:03;;;;;;;2.92;2.72;;;;;;;7.13;100.00;97842.50;4103768;28;20222;-44
2023/12/14 03:30:07;;;;;;;3.15;2.85;;;;;;;7.09;100.00;97854.13;4101872;28;20254;-44
2023/12/14 03:32:10;;;;;;;3.55;3.25;;;;;;;7.20;100.00;97855.94;4106282;28;20269;-44
2023/12/14 03:34:12;;;;;;;3.55;3.25;;;;;;;7.11;100.00;97857.41;4090145;28;20219;-44
2023/12/14 03:36:14;;;;;;;4.15;3.53;;;;;;;7.07;100.00;97856.25;4089289;28;20223;-44
2023/12/14 03:38:15;;;;;;;3.28;2.97;;;;;;;7.06;100.00;97855.44;4088148;28;20754;-44
2023/12/14 03:40:17;;;;;;;3.47;3.25;;;;;;;7.13;100.00;97855.28;4108520;28;20217;-44
2023/12/14 03:42:19;;;;;;;3.70;3.40;;;;;;;7.06;100.00;97860.88;4104441;28;20211;-44
2023/12/14 03:44:21;;;;;;;3.80;3.50;;;;;;;6.99;100.00;97868.38;4102720;28;20261;-44
2023/12/14 03:46:22;;;;;;;3.92;3.38;;;;;;;7.00;100.00;97867.28;4103812;28;20216;-44
2023/12/14 03:48:24;;;;;;;4.75;4.35;;;;;;;6.98;100.00;97874.03;4103321;28;20254;-44
2023/12/14 03:50:27;;;;;;;4.32;3.92;;;;;;;6.96;100.00;97878.91;4105264;28;20319;-44
2023/12/14 03:52:31;;;;;;;4.25;3.95;;;;;;;6.96;100.00;97881.63;4107917;28;20207;-45
2023/12/14 03:54:33;;;;;;;3.88;3.58;;;;;;;7.00;100.00;97883.59;4108084;28;20590;-44
2023/12/14 03:56:34;;;;;;;3.15;2.95;;;;;;;7.01;100.00;97895.28;4105729;28;20294;-44
2023/12/14 03:58:36;;;;;;;3.78;3.47;;;;;;;6.98;100.00;97895.78;4104664;28;20635;-44
2023/12/14 04:00:38;;;;;;;3.22;3.03;;;;;;;7.01;100.00;97895.28;4091532;28;20569;-44
2023/12/14 04:02:40;;;;;;;4.30;3.85;;;;;;;6.97;100.00;97896.88;4096560;28;20230;-44
2023/12/14 04:04:42;;;;;;;2.88;2.60;;;;;;;6.99;100.00;97902.88;4107049;28;20347;-44
2023/12/14 04:06:44;;;;;;;4.05;3.72;;;;;;;7.06;100.00;97909.00;4089059;28;20228;-44
2023/12/14 04:08:46;;;;;;;3.67;3.38;;;;;;;7.12;100.00;97911.59;4098497;28;20207;-44
2023/12/14 04:10:48;;;;;;;5.05;4.10;;;;;;;7.04;100.00;97905.72;4088088;28;20223;-44
2023/12/14 04:12:49;;;;;;;15.30;5.93;;;;;;;7.12;100.00;97911.59;4105499;28;20687;-44
2023/12/14 04:14:51;;;;;;;3.25;3.05;;;;;;;7.00;100.00;97921.69;4106718;28;21103;-45
2023/12/14 04:16:54;;;;;;;3.97;3.78;;;;;;;7.00;100.00;97920.84;4107649;28;20708;-44
2023/12/14 04:18:56;;;;;;;7.15;3.55;;;;;;;7.00;100.00;97927.13;4106228;28;20795;-44
2023/12/14 04:20:58;;;;;;;3.72;3.22;;;;;;;7.08;100.00;97934.09;4107999;28;20207;-44
2023/12/14 04:22:59;;;;;;;4.97;4.07;;;;;;;7.07;100.00;97932.41;4106999;28;20211;-44
2023/12/14 04:25:01;;;;;;;6.47;3.50;;;;;;;7.02;100.00;97924.97;4106067;28;20230;-44
2023/12/14 04:27:03;;;;;;;5.00;4.57;;;;;;;6.96;100.00;97925.94;4088615;28;20232;-44
2023/12/14 04:29:07;;;;;;;3.70;3.40;;;;;;;6.98;100.00;97939.31;4108288;28;20211;-44
2023/12/14 04:31:10;;;;;;;7.93;4.47;;;;;;;6.95;100.00;97939.81;4103867;28;20278;-44
2023/12/14 04:33:14;;;;;;;3.45;3.25;;;;;;;6.97;100.00;97943.09;4105033;28;20210;-44
2023/12/14 04:35:16;;;;;;;4.20;3.75;;;;;;;7.13;100.00;97936.88;4105432;28;20251;-44
2023/12/14 04:37:18;;;;;;;4.35;4.05;;;;;;;7.09;100.00;97952.06;4105587;28;20345;-44
2023/12/14 04:39:20;;;;;;;3.60;3.30;;;;;;;7.03;100.00;97936.69;4106167;28;20246;-44
2023/12/14 04:41:21;;;;;;;4.22;3.92;;;;;;;7.15;100.00;97946.47;4105658;28;20210;-44
2023/12/14 04:43:23;;;;;;;3.95;3.65;;;;;;;7.06;100.00;97944.34;4090965;28;20787;-43
2023/12/14 04:45:25;;;;;;;14.55;3.35;;;;;;;7.01;100.00;97949.69;4107232;28;20273;-44
2023/12/14 04:47:26;;;;;;;4.35;3.95;;;;;;;7.05;100.00;97961.75;4105619;28;20234;-44
2023/12/14 04:49:28;;;;;;;3.65;3.22;;;;;;;7.09;100.00;97954.78;4093978;28;20598;-44
2023/12/14 04:51:31;;;;;;;5.18;3.85;;;;;;;7.06;100.00;97966.13;4107078;28;20215;-43
2023/12/14 04:53:33;;;;;;;4.95;3.55;;;;;;;7.07;100.00;97970.47;4092488;28;20219;-44
2023/12/14 04:55:35;;;;;;;2.78;2.58;;;;;;;6.99;100.00;97973.59;4104480;28;20669;-45
2023/12/14 04:57:37;;;;;;;3.70;3.40;;;;;;;7.00;100.00;97975.25;4109098;28;20783;-44
2023/12/14 04:59:42;;;;;;;3.38;3.08;;;;;;;6.97;100.00;97987.41;4093515;28;20235;-45
2023/12/14 05:01:44;;;;;;;3.45;2.85;;;;;;;6.96;100.00;97990.41;4108388;28;20257;-44
2023/12/14 05:03:46;;;;;;;2.75;2.38;;;;;;;6.97;100.00;97997.50;4104923;28;20219;-44
2023/12/14 05:05:48;;;;;;;4.45;4.05;;;;;;;6.97;100.00;98000.22;4107095;28;20297;-44
2023/12/14 05:07:50;;;;;;;4.10;3.00;;;;;;;6.96;100.00;98001.28;4104916;28;20253;-44
2023/12/14 05:09:52;;;;;;;4.53;3.92;;;;;;;7.03;100.00;97999.25;4104523;28;20211;-44
2023/12/14 05:11:54;;;;;;;3.20;2.53;;;;;;;6.96;100.00;98004.00;4086504;28;20219;-44
2023/12/14 05:13:56;;;;;;;5.80;3.95;;;;;;;7.16;100.00;97996.25;4087666;28;20211;-44
2023/12/14 05:15:57;;;;;;;3.15;2.95;;;;;;;7.00;100.00;97999.72;4105815;28;20210;-44
2023/12/14 05:17:59;;;;;;;3.47;3.17;;;;;;;6.92;100.00;98010.97;4103704;28;20287;-43
2023/12/14 05:20:01;;;;;;;4.93;4.13;;;;;;;6.99;100.00;98017.09;4104810;28;20234;-44
2023/12/14 05:22:03;;;;;;;4.20;3.90;;;;;;;6.98;100.00;98020.91;4087409;28;20264;-44
2023/12/14 05:24:05;;;;;;;3.38;3.17;;;;;;;6.90;100.00;98019.38;4075034;28;20729;-44
2023/12/14 05:26:07;;;;;;;2.72;2.35;;;;;;;6.98;100.00;98021.75;4104991;28;20222;-44
2023/12/14 05:28:09;;;;;;;4.18;3.83;;;;;;;6.88;100.00;98020.69;4105781;28;20231;-44
2023/12/14 05:30:11;;;;;;;4.78;4.28;;;;;;;6.85;100.00;98032.03;4104509;28;20611;-44
2023/12/14 05:32:13;;;;;;;3.90;3.60;;;;;;;6.85;100.00;98032.88;4087253;28;20204;-44
2023/12/14 05:34:15;;;;;;;3.72;3.42;;;;;;;6.84;100.00;98036.66;4108322;28;20218;-44
2023/12/14 05:36:17;;;;;;;3.20;2.90;;;;;;;6.85;100.00;98041.03;4088531;28;20668;-44
2023/12/14 05:38:19;;;;;;;3.00;2.70;;;;;;;6.83;100.00;98045.03;4092250;28;20522;-45
2023/12/14 05:40:21;;;;;;;4.85;3.35;;;;;;;6.84;100.00;98052.13;4092962;28;20303;-44
2023/12/14 05:42:22;;;;;;;4.20;3.30;;;;;;;6.84;100.00;98052.13;4089356;28;20218;-44
2023/12/14 05:44:25;;;;;;;3.13;2.88;;;;;;;6.83;100.00;98050.50;4104427;28;20219;-44
2023/12/14 05:46:26;;;;;;;3.53;3.22;;;;;;;6.86;100.00;98050.00;4087292;28;20216;-44
2023/12/14 05:48:28;;;;;;;4.05;3.38;;;;;;;6.86;100.00;98060.88;4086463;28;20211;-44
2023/12/14 05:50:30;;;;;;;3.25;2.95;;;;;;;6.84;100.00;98063.00;4089255;28;20258;-44
2023/12/14 05:52:32;;;;;;;2.40;2.28;;;;;;;6.85;100.00;98070.09;4085582;28;20583;-44
2023/12/14 05:54:36;;;;;;;2.13;1.85;;;;;;;6.85;100.00;98079.09;4089279;28;20259;-44
2023/12/14 05:56:37;;;;;;;3.40;2.78;;;;;;;6.87;100.00;98078.84;4088323;28;20291;-44
2023/12/14 05:58:41;;;;;;;2.42;2.22;;;;;;;6.85;100.00;98092.69;4088174;28;20223;-44
2023/12/14 06:00:42;;;;;;;3.40;3.10;;;;;;;6.83;100.00;98089.38;4103835;28;20693;-44
2023/12/14 06:02:44;;;;;;;4.05;3.35;;;;;;;6.86;100.00;98104.38;4102533;28;20214;-46
2023/12/14 06:04:46;;;;;;;5.45;3.20;;;;;;;6.86;100.00;98097.06;4102325;28;20298;-44
2023/12/14 06:06:48;;;;;;;3.42;3.13;;;;;;;6.87;100.00;98111.47;4103171;28;20274;-44
2023/12/14 06:08:49;;;;;;;6.60;2.92;;;;;;;6.85;100.00;98106.28;4084896;28;20208;-44
2023/12/14 06:10:51;;;;;;;3.38;3.08;;;;;;;6.89;100.00;98114.81;4089696;28;20319;-44
2023/12/14 06:12:53;;;;;;;3.92;3.63;;;;;;;6.86;100.00;98120.69;4089253;28;20219;-44
2023/12/14 06:14:55;;;;;;;5.45;4.82;;;;;;;6.83;100.00;98126.63;4103795;28;20222;-44
2023/12/14 06:16:58;;;;;;;3.40;3.20;;;;;;;6.83;100.00;98132.88;4103785;28;20230;-45
2023/12/14 06:19:00;;;;;;;8.60;4.18;;;;;;;6.81;100.00;98136.88;4091394;28;20920;-45
2023/12/14 06:21:02;;;;;;;3.83;3.53;;;;;;;6.83;100.00;98132.06;4104690;28;20211;-44
2023/12/14 06:23:04;;;;;;;4.57;2.83;;;;;;;6.84;100.00;98139.16;4106004;28;20755;-44
2023/12/14 06:25:06;;;;;;;4.30;4.00;;;;;;;6.92;100.00;98141.50;4107787;28;20566;-44
2023/12/14 06:27:07;;;;;;;4.10;3.72;;;;;;;6.91;100.00;98150.75;4087391;28;20235;-44
2023/12/14 06:29:10;;;;;;;24.17;5.07;;;;;;;6.85;100.00;98149.81;4091771;28;20218;-44
2023/12/14 06:31:14;;;;;;;9.13;4.38;;;;;;;6.78;100.00;98156.41;4090223;28;20215;-44
2023/12/14 06:33:15;;;;;;;4.68;4.28;;;;;;;6.71;100.00;98152.97;4085802;28;20210;-44
2023/12/14 06:35:17;;;;;;;3.17;2.88;;;;;;;6.84;100.00;98161.75;4073169;29;20658;-44
2023/12/14 06:37:19;;;;;;;5.18;4.68;;;;;;;6.95;100.00;98168.25;4103029;28;21425;-44
2023/12/14 06:39:21;;;;;;;4.18;3.78;;;;;;;6.89;100.00;98169.19;4103476;28;20231;-44
2023/12/14 06:41:23;;;;;;;4.50;4.10;;;;;;;6.89;100.00;98170.00;4100541;28;20218;-44
2023/12/14 06:43:25;;;;;;;4.45;4.20;;;;;;;6.88;100.00;98173.78;4084708;28;20242;-44
2023/12/14 06:45:26;;;;;;;4.63;4.28;;;;;;;6.83;100.00;98172.84;4094244;28;20215;-44
2023/12/14 06:47:28;;;;;;;2.92;2.70;;;;;;;6.81;100.00;98177.66;4103638;28;20313;-44
2023/12/14 06:49:30;;;;;;;4.22;3.92;;;;;;;6.82;100.00;98182.06;4103175;28;20702;-44
2023/12/14 06:51:32;;;;;;;3.80;3.45;;;;;;;6.79;100.00;98190.69;4102493;28;20206;-44
2023/12/14 06:53:40;;;;;;;4.82;4.53;;;;;;;6.75;100.00;98190.31;4102078;28;20743;-44
2023/12/14 06:55:41;;;;;;;4.82;4.45;;;;;;;6.81;100.00;98194.81;4087771;28;20210;-44
2023/12/14 06:57:46;;;;;;;5.38;4.95;;;;;;;6.80;100.00;98197.78;4105481;28;20759;-44
2023/12/14 06:59:48;;;;;;;5.50;5.03;;;;;;;6.77;100.00;98199.06;4085046;28;20231;-44
2023/12/14 07:01:50;;;;;;;7.35;4.30;;;;;;;6.76;100.00;98207.47;4104188;28;20202;-45
2023/12/14 07:03:52;;;;;;;4.68;4.28;;;;;;;6.79;100.00;98212.44;4109299;28;20918;-44
2023/12/14 07:05:53;;;;;;;4.38;3.97;;;;;;;6.81;100.00;98213.00;4085616;28;20210;-44
2023/12/14 07:07:56;;;;;;;3.08;2.90;;;;;;;6.76;100.00;98218.34;4089094;28;20263;-44
2023/12/14 07:09:58;;;;;;;4.38;3.97;;;;;;;6.74;100.00;98225.88;4086662;28;20246;-44
2023/12/14 07:12:02;;;;;;;4.55;4.25;;;;;;;6.73;100.00;98229.69;4087356;28;20238;-44
2023/12/14 07:14:04;;;;;;;3.88;3.50;;;;;;;6.72;100.00;98228.88;4104462;28;20207;-44
2023/12/14 07:16:10;;;;;;;4.82;4.35;;;;;;;6.79;100.00;98239.63;4089348;28;20219;-43
2023/12/14 07:18:11;;;;;;;4.80;4.40;;;;;;;6.74;100.00;98231.31;4100771;28;20234;-44
2023/12/14 07:20:13;;;;;;;3.97;3.28;;;;;;;6.75;100.00;98246.59;4104058;28;20226;-44
2023/12/14 07:22:15;;;;;;;3.83;3.40;;;;;;;6.73;100.00;98251.44;4106416;28;20215;-44
2023/12/14 07:24:17;;;;;;;7.43;4.10;;;;;;;6.80;100.00;98252.16;4102963;28;20219;-44
2023/12/14 07:26:19;;;;;;;6.30;4.78;;;;;;;6.77;100.00;98252.63;4101910;28;20198;-44
2023/12/14 07:28:22;;;;;;;4.55;4.25;;;;;;;6.77;100.00;98252.63;4076005;29;20216;-44
2023/12/14 07:30:24;;;;;;;4.32;3.92;;;;;;;6.86;100.00;98262.09;4108708;28;20760;-45
2023/12/14 07:32:26;;;;;;;5.10;4.70;;;;;;;6.82;100.00;98255.50;4090982;28;20214;-44
2023/12/14 07:34:28;;;;;;;5.90;3.90;;;;;;;6.86;100.00;98268.38;4101997;28;20218;-44
2023/12/14 07:36:30;;;;;;;4.10;3.80;;;;;;;6.77;100.00;98274.38;4105853;28;20219;-44
2023/12/14 07:38:31;;;;;;;4.07;3.72;;;;;;;6.79;100.00;98266.81;4108092;28;20724;-45
2023/12/14 07:40:33;;;;;;;3.55;3.33;;;;;;;6.87;100.00;98271.91;4106447;28;20347;-44
2023/12/14 07:42:35;;;;;;;3.65;3.45;;;;;;;6.78;100.00;98286.91;4105529;28;20210;-44
2023/12/14 07:44:40;;;;;;;4.25;3.55;;;;;;;6.83;100.00;98281.63;4107456;28;20210;-44
2023/12/14 07:46:43;;;;;;;3.80;3.53;;;;;;;6.86;100.00;98294.72;4108221;28;20651;-44
2023/12/14 07:48:44;;;;;;;5.53;3.63;;;;;;;6.80;100.00;98301.94;4108243;28;20210;-44
2023/12/14 07:50:48;;;;;;;4.68;4.18;;;;;;;6.78;100.00;98308.66;4087174;28;21389;-45
2023/12/14 07:52:50;;;;;;;4.88;4.35;;;;;;;6.87;100.00;98312.69;4079044;29;20220;-45
2023/12/14 07:54:52;;;;;;;3.22;3.03;;;;;;;6.93;100.00;98307.19;4103901;28;20586;-44
2023/12/14 07:56:53;;;;;;;3.38;2.95;;;;;;;6.96;100.00;98314.06;4105663;28;21002;-44
2023/12/14 07:58:55;;;;;;;4.07;3.47;;;;;;;6.87;100.00;98324.44;4086732;28;20222;-44
2023/12/14 08:00:57;;;;;;;7.20;5.00;;;;;;;6.90;100.00;98318.50;4105084;28;20221;-45
2023/12/14 08:02:59;;;;;;;6.05;5.32;;;;;;;6.85;100.00;98336.59;4105783;28;20207;-44
2023/12/14 08:05:00;;;;;;;3.78;3.47;;;;;;;6.94;100.00;98329.75;4085952;28;20218;-44
2023/12/14 08:07:02;;;;;;;9.98;4.30;;;;;;;6.93;100.00;98338.97;4100997;28;20265;-45
2023/12/14 08:09:05;;;;;;;5.10;4.68;;;;;;;6.93;100.00;98345.25;4101158;28;20211;-43
2023/12/14 08:11:07;;;;;;;5.57;5.07;;;;;;;6.96;100.00;98346.69;4087767;28;20272;-44
2023/12/14 08:13:12;;;;;;;10.40;5.95;;;;;;;6.93;100.00;98355.28;4091655;28;20204;-44
2023/12/14 08:15:16;;;;;;;4.97;4.55;;;;;;;6.95;100.00;98355.91;4103644;28;20214;-45
2023/12/14 08:17:26;;;;;;;4.43;3.95;;;;;;;6.89;100.00;98365.00;4107415;28;20274;-42
2023/12/14 08:19:40;;;;;;;10.98;5.35;;;;;;;6.97;100.00;98367.38;4102343;28;20234;-44
2023/12/14 08:22:04;;;;;;;4.18;3.63;;;;;;;6.98;100.00;98369.03;4102561;28;20294;-43
2023/12/14 08:24:28;;;;;;;3.38;3.00;;;;;;;6.91;100.00;98379.19;4105623;28;20218;-44
2023/12/14 08:26:48;;;;;;;4.32;4.00;;;;;;;6.97;100.00;98378.25;4091311;28;20237;-44
2023/12/14 08:28:59;;;;;;;3.83;3.50;;;;;;;6.98;100.00;98385.34;4106489;28;20293;-44
2023/12/14 08:31:22;;;;;;;5.28;4.88;;;;;;;6.99;100.00;98384.28;4093629;28;20294;-44
2023/12/14 08:33:36;;;;;;;5.38;4.88;;;;;;;7.01;100.00;98391.16;4105164;28;20246;-44
2023/12/14 08:36:13;;;;;;;3.53;3.22;;;;;;;7.05;100.00;98397.81;4101313;28;20590;-44
2023/12/14 08:38:27;;;;;;;4.03;3.25;;;;;;;6.98;100.00;98396.25;4094532;28;20238;-44
2023/12/14 08:40:40;;;;;;;3.90;3.50;;;;;;;7.02;100.00;98408.34;4106212;28;20278;-45
2023/12/14 08:42:42;;;;;;;4.13;3.83;;;;;;;7.01;100.00;98406.66;4096953;28;20721;-46
2023/12/14 08:44:44;;;;;;;3.90;3.55;;;;;;;7.01;100.00;98417.53;4095340;28;20621;-44
2023/12/14 08:46:46;;;;;;;3.92;3.63;;;;;;;6.98;100.00;98423.44;4104004;28;20705;-45
2023/12/14 08:48:48;;;;;;;4.20;3.75;;;;;;;7.03;100.00;98426.31;4096876;28;20208;-44
2023/12/14 08:50:53;;;;;;;4.82;4.43;;;;;;;7.05;100.00;98427.75;4108868;28;20249;-45
2023/12/14 08:53:18;;;;;;;4.70;4.15;;;;;;;7.09;100.00;98441.72;4103424;28;20768;-46
2023/12/14 08:55:35;;;;;;;4.47;4.18;;;;;;;7.11;100.00;98450.47;4105637;28;20203;-46
2023/12/14 08:57:58;;;;;;;3.63;3.28;;;;;;;7.23;100.00;98451.34;4094180;28;20318;-45
2023/12/14 09:00:01;;;;;;;4.57;4.10;;;;;;;7.17;100.00;98455.00;4108546;28;20242;-44
2023/12/14 09:02:03;;;;;;;4.35;3.95;;;;;;;7.17;100.00;98457.72;4094176;28;20211;-44
2023/12/14 09:04:06;;;;;;;4.72;4.32;;;;;;;7.24;100.00;98466.63;4108783;28;20218;-45
2023/12/14 09:06:09;;;;;;;4.22;3.92;;;;;;;7.18;100.00;98465.66;4092352;28;20294;-44
2023/12/14 09:08:23;;;;;;;4.07;3.13;;;;;;;7.17;100.00;98465.88;4106708;28;20631;-45
2023/12/14 09:10:30;;;;;;;4.53;4.13;;;;;;;7.24;100.00;98466.63;4107260;28;20210;-45
2023/12/14 09:12:35;;;;;;;5.38;4.88;;;;;;;7.26;100.00;98475.38;4091021;28;20259;-45
2023/12/14 09:14:40;;;;;;;4.22;3.83;;;;;;;7.18;100.00;98473.81;4091500;28;20207;-44
2023/12/14 09:16:47;;;;;;;3.80;3.45;;;;;;;7.23;100.00;98476.66;4092348;28;20233;-45
2023/12/14 09:18:52;;;;;;;3.40;3.10;;;;;;;7.26;100.00;98492.53;4088685;28;20270;-45
2023/12/14 09:20:55;;;;;;;6.47;2.95;;;;;;;7.21;100.00;98488.88;4103493;28;20605;-44
2023/12/14 09:22:57;;;;;;;3.75;3.45;;;;;;;7.26;100.00;98497.16;4089000;28;20210;-44
2023/12/14 09:25:03;;;;;;;4.88;4.38;;;;;;;7.26;100.00;98494.44;4078008;29;20212;-45
2023/12/14 09:27:06;;;;;;;3.33;3.03;;;;;;;7.32;100.00;98498.94;4093149;28;20235;-47
2023/12/14 09:29:08;;;;;;;1.65;1.55;;;;;;;7.31;100.00;98498.13;4095168;28;20219;-45
2023/12/14 09:31:15;;;;;;;4.38;3.67;;;;;;;7.41;100.00;98503.84;4105645;28;20262;-44
2023/12/14 09:33:30;;;;;;;2.90;2.70;;;;;;;7.33;100.00;98503.34;4091510;28;20208;-45
2023/12/14 09:35:32;;;;;;;3.00;2.80;;;;;;;7.35;100.00;98501.22;4108911;28;20301;-45
2023/12/14 09:37:47;;;;;;;2.75;2.55;;;;;;;7.42;100.00;98512.84;4106913;28;20277;-44
2023/12/14 09:40:16;;;;;;;4.93;4.55;;;;;;;7.38;100.00;98519.81;4090111;28;20243;-44